sensor_id;sensor_type;location;lat;lon;timestamp;P1;P2;P0
66004;PMS7003;52775;52.262;21.100;2022-12-19T00:00:06;48;58;
66004;PMS7003;52775;52.262;21.100;2022-12-19T00:00:17;50;61;
66004;PMS7003;52775;52.262;21.100;2022-12-19T00:00:28;50;59;
66004;PMS7003;52775;52.262;21.100;2022-12-19T00:00:39;50;53;
66004;PMS7003;52775;52.262;21.100;2022-12-19T00:00:50;45;52;
66004;PMS7003;52775;52.262;21.100;2022-12-19T00:01:02;43;48;
66004;PMS7003;52775;52.262;21.100;2022-12-19T00:01:13;39;44;
66004;PMS7003;52775;52.262;21.100;2022-12-19T00:01:24;35;41;
66004;PMS7003;52775;52.262;21.100;2022-12-19T00:01:34;40;48;
66004;PMS7003;52775;52.262;21.100;2022-12-19T00:01:45;41;52;
66004;PMS7003;52775;52.262;21.100;2022-12-19T00:01:56;44;53;
66004;PMS7003;52775;52.262;21.100;2022-12-19T00:02:07;46;52;
66004;PMS7003;52775;52.262;21.100;2022-12-19T00:02:18;43;53;
66004;PMS7003;52775;52.262;21.100;2022-12-19T00:02:29;40;58;
66004;PMS7003;52775;52.262;21.100;2022-12-19T00:02:39;40;52;
66004;PMS7003;52775;52.262;21.100;2022-12-19T00:02:50;43;48;
66004;PMS7003;52775;52.262;21.100;2022-12-19T00:03:03;43;52;
66004;PMS7003;52775;52.262;21.100;2022-12-19T00:03:13;48;58;
66004;PMS7003;52775;52.262;21.100;2022-12-19T00:03:24;43;52;
66004;PMS7003;52775;52.262;21.100;2022-12-19T00:03:35;44;48;
66004;PMS7003;52775;52.262;21.100;2022-12-19T00:03:46;43;58;
66004;PMS7003;52775;52.262;21.100;2022-12-19T00:03:59;40;51;
66004;PMS7003;52775;52.262;21.100;2022-12-19T00:04:09;41;59;
66004;PMS7003;52775;52.262;21.100;2022-12-19T00:04:19;46;59;
66004;PMS7003;52775;52.262;21.100;2022-12-19T00:04:30;39;45;
66004;PMS7003;52775;52.262;21.100;2022-12-19T00:04:41;31;39;
66004;PMS7003;52775;52.262;21.100;2022-12-19T00:04:52;32;39;
66004;PMS7003;52775;52.262;21.100;2022-12-19T00:05:03;35;39;
66004;PMS7003;52775;52.262;21.100;2022-12-19T00:05:15;44;51;
66004;PMS7003;52775;52.262;21.100;2022-12-19T00:05:25;45;53;
66004;PMS7003;52775;52.262;21.100;2022-12-19T00:05:36;41;48;
66004;PMS7003;52775;52.262;21.100;2022-12-19T00:05:47;40;48;
66004;PMS7003;52775;52.262;21.100;2022-12-19T00:06:00;41;45;
66004;PMS7003;52775;52.262;21.100;2022-12-19T00:06:09;43;50;
66004;PMS7003;52775;52.262;21.100;2022-12-19T00:06:20;43;54;
66004;PMS7003;52775;52.262;21.100;2022-12-19T00:06:32;50;67;
66004;PMS7003;52775;52.262;21.100;2022-12-19T00:06:42;46;65;
66004;PMS7003;52775;52.262;21.100;2022-12-19T00:06:56;41;51;
66004;PMS7003;52775;52.262;21.100;2022-12-19T00:07:04;39;46;
66004;PMS7003;52775;52.262;21.100;2022-12-19T00:07:15;43;51;
66004;PMS7003;52775;52.262;21.100;2022-12-19T00:07:25;44;51;
66004;PMS7003;52775;52.262;21.100;2022-12-19T00:07:37;43;48;
66004;PMS7003;52775;52.262;21.100;2022-12-19T00:07:48;40;43;
66004;PMS7003;52775;52.262;21.100;2022-12-19T00:07:59;39;46;
66004;PMS7003;52775;52.262;21.100;2022-12-19T00:08:21;40;48;
66004;PMS7003;52775;52.262;21.100;2022-12-19T00:08:22;41;48;
66004;PMS7003;52775;52.262;21.100;2022-12-19T00:08:32;40;53;
66004;PMS7003;52775;52.262;21.100;2022-12-19T00:08:44;40;53;
66004;PMS7003;52775;52.262;21.100;2022-12-19T00:08:54;39;52;
66004;PMS7003;52775;52.262;21.100;2022-12-19T00:09:04;35;45;
66004;PMS7003;52775;52.262;21.100;2022-12-19T00:09:16;35;49;
66004;PMS7003;52775;52.262;21.100;2022-12-19T00:09:27;35;50;
66004;PMS7003;52775;52.262;21.100;2022-12-19T00:09:38;35;43;
66004;PMS7003;52775;52.262;21.100;2022-12-19T00:09:49;40;43;
66004;PMS7003;52775;52.262;21.100;2022-12-19T00:10:00;39;43;
66004;PMS7003;52775;52.262;21.100;2022-12-19T00:10:11;43;50;
66004;PMS7003;52775;52.262;21.100;2022-12-19T00:10:22;46;64;
66004;PMS7003;52775;52.262;21.100;2022-12-19T00:10:33;40;58;
66004;PMS7003;52775;52.262;21.100;2022-12-19T00:10:43;40;50;
66004;PMS7003;52775;52.262;21.100;2022-12-19T00:10:56;35;40;
66004;PMS7003;52775;52.262;21.100;2022-12-19T00:11:06;43;65;
66004;PMS7003;52775;52.262;21.100;2022-12-19T00:11:17;43;58;
66004;PMS7003;52775;52.262;21.100;2022-12-19T00:11:29;39;45;
66004;PMS7003;52775;52.262;21.100;2022-12-19T00:11:39;32;49;
66004;PMS7003;52775;52.262;21.100;2022-12-19T00:11:50;32;46;
66004;PMS7003;52775;52.262;21.100;2022-12-19T00:12:00;39;42;
66004;PMS7003;52775;52.262;21.100;2022-12-19T00:12:12;39;41;
66004;PMS7003;52775;52.262;21.100;2022-12-19T00:12:23;39;49;
66004;PMS7003;52775;52.262;21.100;2022-12-19T00:12:34;43;53;
66004;PMS7003;52775;52.262;21.100;2022-12-19T00:12:45;42;50;
66004;PMS7003;52775;52.262;21.100;2022-12-19T00:12:57;34;44;
66004;PMS7003;52775;52.262;21.100;2022-12-19T00:13:07;32;32;
66004;PMS7003;52775;52.262;21.100;2022-12-19T00:13:18;35;41;
66004;PMS7003;52775;52.262;21.100;2022-12-19T00:13:29;42;48;
66004;PMS7003;52775;52.262;21.100;2022-12-19T00:13:40;50;53;
66004;PMS7003;52775;52.262;21.100;2022-12-19T00:13:50;41;48;
66004;PMS7003;52775;52.262;21.100;2022-12-19T00:14:02;40;44;
66004;PMS7003;52775;52.262;21.100;2022-12-19T00:14:13;34;42;
66004;PMS7003;52775;52.262;21.100;2022-12-19T00:14:23;40;48;
66004;PMS7003;52775;52.262;21.100;2022-12-19T00:14:35;43;53;
66004;PMS7003;52775;52.262;21.100;2022-12-19T00:14:46;34;46;
66004;PMS7003;52775;52.262;21.100;2022-12-19T00:14:56;40;52;
66004;PMS7003;52775;52.262;21.100;2022-12-19T00:15:08;39;54;
66004;PMS7003;52775;52.262;21.100;2022-12-19T00:15:19;39;61;
66004;PMS7003;52775;52.262;21.100;2022-12-19T00:15:32;40;49;
66004;PMS7003;52775;52.262;21.100;2022-12-19T00:15:41;41;52;
66004;PMS7003;52775;52.262;21.100;2022-12-19T00:15:52;39;51;
66004;PMS7003;52775;52.262;21.100;2022-12-19T00:16:03;39;54;
66004;PMS7003;52775;52.262;21.100;2022-12-19T00:16:15;35;51;
66004;PMS7003;52775;52.262;21.100;2022-12-19T00:16:26;39;48;
66004;PMS7003;52775;52.262;21.100;2022-12-19T00:16:36;45;64;
66004;PMS7003;52775;52.262;21.100;2022-12-19T00:16:47;43;59;
66004;PMS7003;52775;52.262;21.100;2022-12-19T00:16:58;44;53;
66004;PMS7003;52775;52.262;21.100;2022-12-19T00:17:09;41;51;
66004;PMS7003;52775;52.262;21.100;2022-12-19T00:17:20;35;48;
66004;PMS7003;52775;52.262;21.100;2022-12-19T00:17:30;34;46;
66004;PMS7003;52775;52.262;21.100;2022-12-19T00:17:41;39;51;
66004;PMS7003;52775;52.262;21.100;2022-12-19T00:17:53;40;46;
66004;PMS7003;52775;52.262;21.100;2022-12-19T00:18:04;43;46;
66004;PMS7003;52775;52.262;21.100;2022-12-19T00:18:15;43;51;
66004;PMS7003;52775;52.262;21.100;2022-12-19T00:18:26;35;45;
66004;PMS7003;52775;52.262;21.100;2022-12-19T00:18:38;39;44;
66004;PMS7003;52775;52.262;21.100;2022-12-19T00:18:49;44;50;
66004;PMS7003;52775;52.262;21.100;2022-12-19T00:18:59;39;46;
66004;PMS7003;52775;52.262;21.100;2022-12-19T00:19:10;40;51;
66004;PMS7003;52775;52.262;21.100;2022-12-19T00:19:21;48;60;
66004;PMS7003;52775;52.262;21.100;2022-12-19T00:19:32;45;60;
66004;PMS7003;52775;52.262;21.100;2022-12-19T00:19:43;41;50;
66004;PMS7003;52775;52.262;21.100;2022-12-19T00:19:54;40;52;
66004;PMS7003;52775;52.262;21.100;2022-12-19T00:20:05;40;54;
66004;PMS7003;52775;52.262;21.100;2022-12-19T00:20:16;40;50;
66004;PMS7003;52775;52.262;21.100;2022-12-19T00:20:28;39;43;
66004;PMS7003;52775;52.262;21.100;2022-12-19T00:20:38;39;45;
66004;PMS7003;52775;52.262;21.100;2022-12-19T00:21:01;44;52;
66004;PMS7003;52775;52.262;21.100;2022-12-19T00:21:02;41;50;
66004;PMS7003;52775;52.262;21.100;2022-12-19T00:21:11;45;50;
66004;PMS7003;52775;52.262;21.100;2022-12-19T00:21:23;40;48;
66004;PMS7003;52775;52.262;21.100;2022-12-19T00:21:33;40;48;
66004;PMS7003;52775;52.262;21.100;2022-12-19T00:21:45;40;52;
66004;PMS7003;52775;52.262;21.100;2022-12-19T00:21:55;31;40;
66004;PMS7003;52775;52.262;21.100;2022-12-19T00:22:06;32;41;
66004;PMS7003;52775;52.262;21.100;2022-12-19T00:22:17;41;51;
66004;PMS7003;52775;52.262;21.100;2022-12-19T00:22:29;43;55;
66004;PMS7003;52775;52.262;21.100;2022-12-19T00:22:39;44;50;
66004;PMS7003;52775;52.262;21.100;2022-12-19T00:22:50;44;52;
66004;PMS7003;52775;52.262;21.100;2022-12-19T00:23:02;46;58;
66004;PMS7003;52775;52.262;21.100;2022-12-19T00:23:11;48;58;
66004;PMS7003;52775;52.262;21.100;2022-12-19T00:23:23;45;61;
66004;PMS7003;52775;52.262;21.100;2022-12-19T00:23:34;41;51;
66004;PMS7003;52775;52.262;21.100;2022-12-19T00:23:45;43;50;
66004;PMS7003;52775;52.262;21.100;2022-12-19T00:23:56;41;46;
66004;PMS7003;52775;52.262;21.100;2022-12-19T00:24:09;40;52;
66004;PMS7003;52775;52.262;21.100;2022-12-19T00:24:18;48;61;
66004;PMS7003;52775;52.262;21.100;2022-12-19T00:24:29;44;58;
66004;PMS7003;52775;52.262;21.100;2022-12-19T00:24:39;46;61;
66004;PMS7003;52775;52.262;21.100;2022-12-19T00:24:51;48;54;
66004;PMS7003;52775;52.262;21.100;2022-12-19T00:25:01;44;53;
66004;PMS7003;52775;52.262;21.100;2022-12-19T00:25:13;50;59;
66004;PMS7003;52775;52.262;21.100;2022-12-19T00:25:24;41;45;
66004;PMS7003;52775;52.262;21.100;2022-12-19T00:25:35;40;44;
66004;PMS7003;52775;52.262;21.100;2022-12-19T00:25:46;35;45;
66004;PMS7003;52775;52.262;21.100;2022-12-19T00:26:07;40;48;
66004;PMS7003;52775;52.262;21.100;2022-12-19T00:26:08;35;44;
66004;PMS7003;52775;52.262;21.100;2022-12-19T00:26:19;45;53;
66004;PMS7003;52775;52.262;21.100;2022-12-19T00:26:30;45;51;
66004;PMS7003;52775;52.262;21.100;2022-12-19T00:26:41;41;50;
66004;PMS7003;52775;52.262;21.100;2022-12-19T00:26:52;43;58;
66004;PMS7003;52775;52.262;21.100;2022-12-19T00:27:03;40;52;
66004;PMS7003;52775;52.262;21.100;2022-12-19T00:27:15;40;48;
66004;PMS7003;52775;52.262;21.100;2022-12-19T00:27:24;39;45;
66004;PMS7003;52775;52.262;21.100;2022-12-19T00:27:35;35;54;
66004;PMS7003;52775;52.262;21.100;2022-12-19T00:27:47;48;58;
66004;PMS7003;52775;52.262;21.100;2022-12-19T00:27:58;50;62;
66004;PMS7003;52775;52.262;21.100;2022-12-19T00:28:09;44;52;
66004;PMS7003;52775;52.262;21.100;2022-12-19T00:28:20;44;59;
66004;PMS7003;52775;52.262;21.100;2022-12-19T00:28:31;40;52;
66004;PMS7003;52775;52.262;21.100;2022-12-19T00:28:43;48;64;
66004;PMS7003;52775;52.262;21.100;2022-12-19T00:28:54;45;63;
66004;PMS7003;52775;52.262;21.100;2022-12-19T00:29:05;43;58;
66004;PMS7003;52775;52.262;21.100;2022-12-19T00:29:15;40;48;
66004;PMS7003;52775;52.262;21.100;2022-12-19T00:29:26;41;53;
66004;PMS7003;52775;52.262;21.100;2022-12-19T00:29:37;40;58;
66004;PMS7003;52775;52.262;21.100;2022-12-19T00:29:48;44;64;
66004;PMS7003;52775;52.262;21.100;2022-12-19T00:29:59;45;53;
66004;PMS7003;52775;52.262;21.100;2022-12-19T00:30:11;43;50;
66004;PMS7003;52775;52.262;21.100;2022-12-19T00:30:22;39;50;
66004;PMS7003;52775;52.262;21.100;2022-12-19T00:30:33;41;48;
66004;PMS7003;52775;52.262;21.100;2022-12-19T00:30:44;40;48;
66004;PMS7003;52775;52.262;21.100;2022-12-19T00:30:55;39;45;
66004;PMS7003;52775;52.262;21.100;2022-12-19T00:31:07;33;42;
66004;PMS7003;52775;52.262;21.100;2022-12-19T00:31:18;35;44;
66004;PMS7003;52775;52.262;21.100;2022-12-19T00:31:29;40;46;
66004;PMS7003;52775;52.262;21.100;2022-12-19T00:31:38;41;50;
66004;PMS7003;52775;52.262;21.100;2022-12-19T00:31:51;34;44;
66004;PMS7003;52775;52.262;21.100;2022-12-19T00:32:00;30;35;
66004;PMS7003;52775;52.262;21.100;2022-12-19T00:32:12;30;32;
66004;PMS7003;52775;52.262;21.100;2022-12-19T00:32:23;32;39;
66004;PMS7003;52775;52.262;21.100;2022-12-19T00:32:34;31;35;
66004;PMS7003;52775;52.262;21.100;2022-12-19T00:32:45;30;33;
66004;PMS7003;52775;52.262;21.100;2022-12-19T00:32:56;31;39;
66004;PMS7003;52775;52.262;21.100;2022-12-19T00:33:07;33;44;
66004;PMS7003;52775;52.262;21.100;2022-12-19T00:33:17;35;46;
66004;PMS7003;52775;52.262;21.100;2022-12-19T00:33:29;35;46;
66004;PMS7003;52775;52.262;21.100;2022-12-19T00:33:39;35;44;
66004;PMS7003;52775;52.262;21.100;2022-12-19T00:33:51;33;46;
66004;PMS7003;52775;52.262;21.100;2022-12-19T00:34:02;33;51;
66004;PMS7003;52775;52.262;21.100;2022-12-19T00:34:13;50;64;
66004;PMS7003;52775;52.262;21.100;2022-12-19T00:34:24;42;55;
66004;PMS7003;52775;52.262;21.100;2022-12-19T00:34:35;40;54;
66004;PMS7003;52775;52.262;21.100;2022-12-19T00:34:46;44;50;
66004;PMS7003;52775;52.262;21.100;2022-12-19T00:34:57;51;60;
66004;PMS7003;52775;52.262;21.100;2022-12-19T00:35:08;44;59;
66004;PMS7003;52775;52.262;21.100;2022-12-19T00:35:19;39;51;
66004;PMS7003;52775;52.262;21.100;2022-12-19T00:35:30;34;46;
66004;PMS7003;52775;52.262;21.100;2022-12-19T00:35:40;39;50;
66004;PMS7003;52775;52.262;21.100;2022-12-19T00:35:57;40;52;
66004;PMS7003;52775;52.262;21.100;2022-12-19T00:36:04;39;44;
66004;PMS7003;52775;52.262;21.100;2022-12-19T00:36:15;41;51;
66004;PMS7003;52775;52.262;21.100;2022-12-19T00:36:26;41;48;
66004;PMS7003;52775;52.262;21.100;2022-12-19T00:36:37;43;48;
66004;PMS7003;52775;52.262;21.100;2022-12-19T00:36:47;40;51;
66004;PMS7003;52775;52.262;21.100;2022-12-19T00:36:58;46;62;
66004;PMS7003;52775;52.262;21.100;2022-12-19T00:37:09;40;52;
66004;PMS7003;52775;52.262;21.100;2022-12-19T00:37:20;32;46;
66004;PMS7003;52775;52.262;21.100;2022-12-19T00:37:31;32;50;
66004;PMS7003;52775;52.262;21.100;2022-12-19T00:37:42;34;51;
66004;PMS7003;52775;52.262;21.100;2022-12-19T00:37:53;35;50;
66004;PMS7003;52775;52.262;21.100;2022-12-19T00:38:04;34;45;
66004;PMS7003;52775;52.262;21.100;2022-12-19T00:38:14;34;40;
66004;PMS7003;52775;52.262;21.100;2022-12-19T00:38:26;43;46;
66004;PMS7003;52775;52.262;21.100;2022-12-19T00:38:37;41;53;
66004;PMS7003;52775;52.262;21.100;2022-12-19T00:38:48;35;43;
66004;PMS7003;52775;52.262;21.100;2022-12-19T00:38:59;40;52;
66004;PMS7003;52775;52.262;21.100;2022-12-19T00:39:10;34;52;
66004;PMS7003;52775;52.262;21.100;2022-12-19T00:39:21;39;54;
66004;PMS7003;52775;52.262;21.100;2022-12-19T00:39:33;34;43;
66004;PMS7003;52775;52.262;21.100;2022-12-19T00:39:43;40;49;
66004;PMS7003;52775;52.262;21.100;2022-12-19T00:39:54;44;50;
66004;PMS7003;52775;52.262;21.100;2022-12-19T00:40:05;39;45;
66004;PMS7003;52775;52.262;21.100;2022-12-19T00:40:17;31;44;
66004;PMS7003;52775;52.262;21.100;2022-12-19T00:40:27;35;46;
66004;PMS7003;52775;52.262;21.100;2022-12-19T00:40:38;35;58;
66004;PMS7003;52775;52.262;21.100;2022-12-19T00:40:50;40;55;
66004;PMS7003;52775;52.262;21.100;2022-12-19T00:41:13;43;46;
66004;PMS7003;52775;52.262;21.100;2022-12-19T00:41:13;40;53;
66004;PMS7003;52775;52.262;21.100;2022-12-19T00:41:24;34;39;
66004;PMS7003;52775;52.262;21.100;2022-12-19T00:41:35;30;30;
66004;PMS7003;52775;52.262;21.100;2022-12-19T00:41:45;39;49;
66004;PMS7003;52775;52.262;21.100;2022-12-19T00:41:57;35;51;
66004;PMS7003;52775;52.262;21.100;2022-12-19T00:42:08;34;43;
66004;PMS7003;52775;52.262;21.100;2022-12-19T00:42:18;32;46;
66004;PMS7003;52775;52.262;21.100;2022-12-19T00:42:29;40;43;
66004;PMS7003;52775;52.262;21.100;2022-12-19T00:42:39;39;44;
66004;PMS7003;52775;52.262;21.100;2022-12-19T00:42:51;39;44;
66004;PMS7003;52775;52.262;21.100;2022-12-19T00:43:02;43;55;
66004;PMS7003;52775;52.262;21.100;2022-12-19T00:43:14;34;49;
66004;PMS7003;52775;52.262;21.100;2022-12-19T00:43:24;30;40;
66004;PMS7003;52775;52.262;21.100;2022-12-19T00:43:34;31;42;
66004;PMS7003;52775;52.262;21.100;2022-12-19T00:43:51;32;42;
66004;PMS7003;52775;52.262;21.100;2022-12-19T00:43:57;32;35;
66004;PMS7003;52775;52.262;21.100;2022-12-19T00:44:09;35;42;
66004;PMS7003;52775;52.262;21.100;2022-12-19T00:44:19;40;43;
66004;PMS7003;52775;52.262;21.100;2022-12-19T00:44:31;39;43;
66004;PMS7003;52775;52.262;21.100;2022-12-19T00:44:41;34;35;
66004;PMS7003;52775;52.262;21.100;2022-12-19T00:44:53;34;39;
66004;PMS7003;52775;52.262;21.100;2022-12-19T00:45:04;34;42;
66004;PMS7003;52775;52.262;21.100;2022-12-19T00:45:15;30;35;
66004;PMS7003;52775;52.262;21.100;2022-12-19T00:45:26;29;35;
66004;PMS7003;52775;52.262;21.100;2022-12-19T00:45:36;35;43;
66004;PMS7003;52775;52.262;21.100;2022-12-19T00:45:48;34;43;
66004;PMS7003;52775;52.262;21.100;2022-12-19T00:46:01;33;42;
66004;PMS7003;52775;52.262;21.100;2022-12-19T00:46:11;35;48;
66004;PMS7003;52775;52.262;21.100;2022-12-19T00:46:22;33;34;
66004;PMS7003;52775;52.262;21.100;2022-12-19T00:46:33;31;51;
66004;PMS7003;52775;52.262;21.100;2022-12-19T00:46:42;33;54;
66004;PMS7003;52775;52.262;21.100;2022-12-19T00:46:54;30;34;
66004;PMS7003;52775;52.262;21.100;2022-12-19T00:47:05;35;45;
66004;PMS7003;52775;52.262;21.100;2022-12-19T00:47:16;33;42;
66004;PMS7003;52775;52.262;21.100;2022-12-19T00:47:27;34;48;
66004;PMS7003;52775;52.262;21.100;2022-12-19T00:47:38;44;51;
66004;PMS7003;52775;52.262;21.100;2022-12-19T00:47:49;43;58;
66004;PMS7003;52775;52.262;21.100;2022-12-19T00:48:00;40;48;
66004;PMS7003;52775;52.262;21.100;2022-12-19T00:48:14;31;44;
66004;PMS7003;52775;52.262;21.100;2022-12-19T00:48:22;29;46;
66004;PMS7003;52775;52.262;21.100;2022-12-19T00:48:34;29;42;
66004;PMS7003;52775;52.262;21.100;2022-12-19T00:48:44;31;43;
66004;PMS7003;52775;52.262;21.100;2022-12-19T00:48:55;34;42;
66004;PMS7003;52775;52.262;21.100;2022-12-19T00:49:07;35;43;
66004;PMS7003;52775;52.262;21.100;2022-12-19T00:49:18;42;48;
66004;PMS7003;52775;52.262;21.100;2022-12-19T00:49:29;35;42;
66004;PMS7003;52775;52.262;21.100;2022-12-19T00:49:41;35;51;
66004;PMS7003;52775;52.262;21.100;2022-12-19T00:49:51;34;48;
66004;PMS7003;52775;52.262;21.100;2022-12-19T00:50:02;33;45;
66004;PMS7003;52775;52.262;21.100;2022-12-19T00:50:13;34;44;
66004;PMS7003;52775;52.262;21.100;2022-12-19T00:50:24;42;50;
66004;PMS7003;52775;52.262;21.100;2022-12-19T00:50:35;42;49;
66004;PMS7003;52775;52.262;21.100;2022-12-19T00:50:46;35;42;
66004;PMS7003;52775;52.262;21.100;2022-12-19T00:50:58;33;42;
66004;PMS7003;52775;52.262;21.100;2022-12-19T00:51:09;44;51;
66004;PMS7003;52775;52.262;21.100;2022-12-19T00:51:20;42;45;
66004;PMS7003;52775;52.262;21.100;2022-12-19T00:51:30;42;44;
66004;PMS7003;52775;52.262;21.100;2022-12-19T00:51:41;41;48;
66004;PMS7003;52775;52.262;21.100;2022-12-19T00:51:52;49;60;
66004;PMS7003;52775;52.262;21.100;2022-12-19T00:52:02;44;51;
66004;PMS7003;52775;52.262;21.100;2022-12-19T00:52:13;39;45;
66004;PMS7003;52775;52.262;21.100;2022-12-19T00:52:25;34;45;
66004;PMS7003;52775;52.262;21.100;2022-12-19T00:52:36;35;49;
66004;PMS7003;52775;52.262;21.100;2022-12-19T00:52:47;35;43;
66004;PMS7003;52775;52.262;21.100;2022-12-19T00:52:58;34;45;
66004;PMS7003;52775;52.262;21.100;2022-12-19T00:53:10;34;52;
66004;PMS7003;52775;52.262;21.100;2022-12-19T00:53:20;33;46;
66004;PMS7003;52775;52.262;21.100;2022-12-19T00:53:32;40;46;
66004;PMS7003;52775;52.262;21.100;2022-12-19T00:53:43;39;50;
66004;PMS7003;52775;52.262;21.100;2022-12-19T00:53:54;35;45;
66004;PMS7003;52775;52.262;21.100;2022-12-19T00:54:04;34;49;
66004;PMS7003;52775;52.262;21.100;2022-12-19T00:54:17;39;50;
66004;PMS7003;52775;52.262;21.100;2022-12-19T00:54:27;39;51;
66004;PMS7003;52775;52.262;21.100;2022-12-19T00:54:37;35;45;
66004;PMS7003;52775;52.262;21.100;2022-12-19T00:54:48;33;43;
66004;PMS7003;52775;52.262;21.100;2022-12-19T00:54:59;33;39;
66004;PMS7003;52775;52.262;21.100;2022-12-19T00:55:10;43;63;
66004;PMS7003;52775;52.262;21.100;2022-12-19T00:55:21;35;54;
66004;PMS7003;52775;52.262;21.100;2022-12-19T00:55:32;33;45;
66004;PMS7003;52775;52.262;21.100;2022-12-19T00:55:43;34;40;
66004;PMS7003;52775;52.262;21.100;2022-12-19T00:55:54;34;50;
66004;PMS7003;52775;52.262;21.100;2022-12-19T00:56:07;39;59;
66004;PMS7003;52775;52.262;21.100;2022-12-19T00:56:17;40;49;
66004;PMS7003;52775;52.262;21.100;2022-12-19T00:56:30;39;48;
66004;PMS7003;52775;52.262;21.100;2022-12-19T00:56:39;39;52;
66004;PMS7003;52775;52.262;21.100;2022-12-19T00:56:50;35;51;
66004;PMS7003;52775;52.262;21.100;2022-12-19T00:57:01;35;43;
66004;PMS7003;52775;52.262;21.100;2022-12-19T00:57:12;31;39;
66004;PMS7003;52775;52.262;21.100;2022-12-19T00:57:23;33;45;
66004;PMS7003;52775;52.262;21.100;2022-12-19T00:57:34;40;46;
66004;PMS7003;52775;52.262;21.100;2022-12-19T00:57:45;43;52;
66004;PMS7003;52775;52.262;21.100;2022-12-19T00:57:57;42;43;
66004;PMS7003;52775;52.262;21.100;2022-12-19T00:58:07;48;60;
66004;PMS7003;52775;52.262;21.100;2022-12-19T00:58:20;43;52;
66004;PMS7003;52775;52.262;21.100;2022-12-19T00:58:29;40;49;
66004;PMS7003;52775;52.262;21.100;2022-12-19T00:58:40;42;49;
66004;PMS7003;52775;52.262;21.100;2022-12-19T00:58:51;40;42;
66004;PMS7003;52775;52.262;21.100;2022-12-19T00:59:02;34;43;
66004;PMS7003;52775;52.262;21.100;2022-12-19T00:59:13;34;46;
66004;PMS7003;52775;52.262;21.100;2022-12-19T00:59:24;39;45;
66004;PMS7003;52775;52.262;21.100;2022-12-19T00:59:35;33;42;
66004;PMS7003;52775;52.262;21.100;2022-12-19T00:59:46;35;42;
66004;PMS7003;52775;52.262;21.100;2022-12-19T00:59:57;34;45;
66004;PMS7003;52775;52.262;21.100;2022-12-19T01:00:08;35;43;
66004;PMS7003;52775;52.262;21.100;2022-12-19T01:00:19;35;43;
66004;PMS7003;52775;52.262;21.100;2022-12-19T01:00:30;34;43;
66004;PMS7003;52775;52.262;21.100;2022-12-19T01:00:41;32;40;
66004;PMS7003;52775;52.262;21.100;2022-12-19T01:00:52;31;40;
66004;PMS7003;52775;52.262;21.100;2022-12-19T01:01:05;30;39;
66004;PMS7003;52775;52.262;21.100;2022-12-19T01:01:15;30;32;
66004;PMS7003;52775;52.262;21.100;2022-12-19T01:01:25;29;34;
66004;PMS7003;52775;52.262;21.100;2022-12-19T01:01:37;30;39;
66004;PMS7003;52775;52.262;21.100;2022-12-19T01:01:47;28;34;
66004;PMS7003;52775;52.262;21.100;2022-12-19T01:01:58;28;32;
66004;PMS7003;52775;52.262;21.100;2022-12-19T01:02:09;30;34;
66004;PMS7003;52775;52.262;21.100;2022-12-19T01:02:20;31;42;
66004;PMS7003;52775;52.262;21.100;2022-12-19T01:02:32;31;43;
66004;PMS7003;52775;52.262;21.100;2022-12-19T01:02:42;32;41;
66004;PMS7003;52775;52.262;21.100;2022-12-19T01:02:53;30;43;
66004;PMS7003;52775;52.262;21.100;2022-12-19T01:03:04;32;39;
66004;PMS7003;52775;52.262;21.100;2022-12-19T01:03:15;34;41;
66004;PMS7003;52775;52.262;21.100;2022-12-19T01:03:26;32;44;
66004;PMS7003;52775;52.262;21.100;2022-12-19T01:03:37;34;49;
66004;PMS7003;52775;52.262;21.100;2022-12-19T01:03:49;35;45;
66004;PMS7003;52775;52.262;21.100;2022-12-19T01:04:00;31;41;
66004;PMS7003;52775;52.262;21.100;2022-12-19T01:04:12;29;34;
66004;PMS7003;52775;52.262;21.100;2022-12-19T01:04:21;31;35;
66004;PMS7003;52775;52.262;21.100;2022-12-19T01:04:31;34;42;
66004;PMS7003;52775;52.262;21.100;2022-12-19T01:04:43;39;45;
66004;PMS7003;52775;52.262;21.100;2022-12-19T01:04:53;39;45;
66004;PMS7003;52775;52.262;21.100;2022-12-19T01:05:05;30;39;
66004;PMS7003;52775;52.262;21.100;2022-12-19T01:05:16;35;44;
66004;PMS7003;52775;52.262;21.100;2022-12-19T01:05:27;34;39;
66004;PMS7003;52775;52.262;21.100;2022-12-19T01:05:38;32;39;
66004;PMS7003;52775;52.262;21.100;2022-12-19T01:05:50;34;48;
66004;PMS7003;52775;52.262;21.100;2022-12-19T01:06:00;39;43;
66004;PMS7003;52775;52.262;21.100;2022-12-19T01:06:11;34;50;
66004;PMS7003;52775;52.262;21.100;2022-12-19T01:06:22;34;51;
66004;PMS7003;52775;52.262;21.100;2022-12-19T01:06:33;35;49;
66004;PMS7003;52775;52.262;21.100;2022-12-19T01:06:44;35;44;
66004;PMS7003;52775;52.262;21.100;2022-12-19T01:06:55;41;44;
66004;PMS7003;52775;52.262;21.100;2022-12-19T01:07:06;39;41;
66004;PMS7003;52775;52.262;21.100;2022-12-19T01:07:16;39;40;
66004;PMS7003;52775;52.262;21.100;2022-12-19T01:07:28;34;39;
66004;PMS7003;52775;52.262;21.100;2022-12-19T01:07:39;32;35;
66004;PMS7003;52775;52.262;21.100;2022-12-19T01:07:50;30;35;
66004;PMS7003;52775;52.262;21.100;2022-12-19T01:08:01;29;35;
66004;PMS7003;52775;52.262;21.100;2022-12-19T01:08:12;29;35;
66004;PMS7003;52775;52.262;21.100;2022-12-19T01:08:23;30;35;
66004;PMS7003;52775;52.262;21.100;2022-12-19T01:08:34;32;39;
66004;PMS7003;52775;52.262;21.100;2022-12-19T01:08:44;34;41;
66004;PMS7003;52775;52.262;21.100;2022-12-19T01:08:55;35;41;
66004;PMS7003;52775;52.262;21.100;2022-12-19T01:09:08;39;48;
66004;PMS7003;52775;52.262;21.100;2022-12-19T01:09:19;32;35;
66004;PMS7003;52775;52.262;21.100;2022-12-19T01:09:29;34;39;
66004;PMS7003;52775;52.262;21.100;2022-12-19T01:09:41;32;40;
66004;PMS7003;52775;52.262;21.100;2022-12-19T01:09:51;31;40;
66004;PMS7003;52775;52.262;21.100;2022-12-19T01:10:02;31;35;
66004;PMS7003;52775;52.262;21.100;2022-12-19T01:10:13;29;39;
66004;PMS7003;52775;52.262;21.100;2022-12-19T01:10:24;25;32;
66004;PMS7003;52775;52.262;21.100;2022-12-19T01:10:35;24;28;
66004;PMS7003;52775;52.262;21.100;2022-12-19T01:10:46;24;28;
66004;PMS7003;52775;52.262;21.100;2022-12-19T01:10:59;30;34;
66004;PMS7003;52775;52.262;21.100;2022-12-19T01:11:07;30;35;
66004;PMS7003;52775;52.262;21.100;2022-12-19T01:11:18;29;32;
66004;PMS7003;52775;52.262;21.100;2022-12-19T01:11:30;28;32;
66004;PMS7003;52775;52.262;21.100;2022-12-19T01:11:41;25;29;
66004;PMS7003;52775;52.262;21.100;2022-12-19T01:11:51;25;30;